createdAt,value
2023-05-16T00:00:00.349Z,68.1
2023-05-16T00:05:00.450Z,67.4
2023-05-16T00:10:00.355Z,67.7
2023-05-16T00:15:00.354Z,67.8
2023-05-16T00:20:00.493Z,67.2
2023-05-16T00:25:00.361Z,66.2
2023-05-16T00:30:00.356Z,66.1
2023-05-16T00:35:00.412Z,66.5
2023-05-16T00:40:00.366Z,66.5
2023-05-16T00:45:00.369Z,66.7
2023-05-16T00:50:00.483Z,67.1
2023-05-16T00:55:00.384Z,66.5
2023-05-16T01:00:00.378Z,66.5
2023-05-16T01:05:00.476Z,67.6
2023-05-16T01:10:00.393Z,66.5
2023-05-16T01:15:00.365Z,67.1
2023-05-16T01:20:00.404Z,67.5
2023-05-16T01:25:00.360Z,66.8
2023-05-16T01:30:00.356Z,67.2
2023-05-16T01:35:00.398Z,67.6
2023-05-16T01:40:00.399Z,67.9
2023-05-16T01:45:00.393Z,69.9
2023-05-16T01:50:00.488Z,72.1
2023-05-16T01:55:00.463Z,70.5
2023-05-16T02:00:00.360Z,70.5
2023-05-16T02:05:00.594Z,69.8
2023-05-16T02:10:00.329Z,68.1
2023-05-16T02:15:00.328Z,68.0
2023-05-16T02:20:00.425Z,67.4
2023-05-16T02:25:00.331Z,67.4
2023-05-16T02:30:00.333Z,66.4
2023-05-16T02:35:00.430Z,66.1
2023-05-16T02:40:00.334Z,66.1
2023-05-16T02:45:00.361Z,65.6
2023-05-16T02:50:00.396Z,65.3
2023-05-16T02:55:20.305Z,64.8
2023-05-16T03:00:00.340Z,64.4
2023-05-16T03:05:00.401Z,63.8
2023-05-16T03:10:00.347Z,64.6
2023-05-16T03:15:00.319Z,63.7
2023-05-16T03:20:00.561Z,63.9
2023-05-16T03:25:00.331Z,64.3
2023-05-16T03:30:00.335Z,63.9
2023-05-16T03:35:00.399Z,64.0
2023-05-16T03:40:00.338Z,64.0
2023-05-16T03:45:00.331Z,63.4
2023-05-16T03:50:00.418Z,62.8
2023-05-16T03:55:00.356Z,62.9
2023-05-16T04:00:00.326Z,63.6
2023-05-16T04:05:00.456Z,63.3
2023-05-16T04:10:00.348Z,64.3
2023-05-16T04:15:00.331Z,63.4
2023-05-16T04:20:00.618Z,62.3
2023-05-16T04:25:00.328Z,63.4
2023-05-16T04:30:00.389Z,62.7
2023-05-16T04:35:00.403Z,62.4
2023-05-16T04:40:00.328Z,61.5
2023-05-16T04:45:00.352Z,61.2
2023-05-16T04:50:00.495Z,62.2
2023-05-16T04:55:00.353Z,62.4
2023-05-16T05:00:00.363Z,61.3
2023-05-16T05:05:00.410Z,59.7
2023-05-16T05:10:00.335Z,59.5
2023-05-16T05:15:00.347Z,58.9
2023-05-16T05:20:02.652Z,58.5
2023-05-16T05:25:00.321Z,59.6
2023-05-16T05:30:00.359Z,58.6
2023-05-16T05:35:00.395Z,59.0
2023-05-16T05:40:00.357Z,59.4
2023-05-16T05:45:00.420Z,59.6
2023-05-16T05:50:00.546Z,59.2
2023-05-16T05:55:00.334Z,60.2
2023-05-16T06:00:00.351Z,59.5
2023-05-16T06:05:00.413Z,58.9
2023-05-16T06:10:00.938Z,58.6
2023-05-16T06:15:00.341Z,57.6
2023-05-16T06:20:00.715Z,58.0
2023-05-16T06:25:00.354Z,57.2
2023-05-16T06:30:00.355Z,58.0
2023-05-16T06:35:00.404Z,57.9
2023-05-16T06:40:00.364Z,58.1
2023-05-16T06:45:00.334Z,58.3
2023-05-16T06:50:00.446Z,55.9
2023-05-16T06:55:00.342Z,54.6
2023-05-16T07:00:00.365Z,53.3
2023-05-16T07:05:00.434Z,53.9
2023-05-16T07:10:00.345Z,53.6
2023-05-16T07:15:00.354Z,53.5
2023-05-16T07:20:02.258Z,51.0
2023-05-16T07:25:00.331Z,50.4
2023-05-16T07:30:00.370Z,50.1
2023-05-16T07:35:00.412Z,49.7
2023-05-16T07:40:00.344Z,50.2
2023-05-16T07:45:00.339Z,49.3
2023-05-16T07:50:00.621Z,48.7
2023-05-16T07:55:00.342Z,47.3
2023-05-16T08:00:00.352Z,48.2
2023-05-16T08:05:01.746Z,46.6
2023-05-16T08:10:00.326Z,47.5
2023-05-16T08:15:00.335Z,46.9
2023-05-16T08:20:00.440Z,54.9
2023-05-16T08:25:00.336Z,52.9
2023-05-16T08:30:00.364Z,50.4
2023-05-16T08:35:00.736Z,50.7
2023-05-16T08:40:00.352Z,50.9
2023-05-16T08:45:00.370Z,47.6
2023-05-16T08:50:00.524Z,46.8
2023-05-16T08:55:10.298Z,45.1
2023-05-16T09:00:00.509Z,44.5
2023-05-16T09:05:00.512Z,42.4
2023-05-16T09:10:00.342Z,40.5
2023-05-16T09:15:00.391Z,40.6
2023-05-16T09:20:00.476Z,38.0
2023-05-16T09:25:00.348Z,38.2
2023-05-16T09:30:00.425Z,38.7
2023-05-16T09:35:00.444Z,41.2
2023-05-16T09:40:00.378Z,37.2
2023-05-16T09:45:04.535Z,38.9
2023-05-16T09:50:00.431Z,39.9
2023-05-16T09:55:00.348Z,41.7
2023-05-16T10:00:00.512Z,44.2
2023-05-16T10:05:00.669Z,45.9
2023-05-16T10:10:00.345Z,47.3
2023-05-16T10:15:00.388Z,49.0
2023-05-16T10:20:00.496Z,46.3
2023-05-16T10:25:00.338Z,45.3
2023-05-16T10:30:00.428Z,43.8
2023-05-16T10:35:00.471Z,44.8
2023-05-16T10:40:00.347Z,45.1
2023-05-16T10:45:05.827Z,42.9
2023-05-16T10:50:00.453Z,43.6
2023-05-16T10:55:00.327Z,43.9
2023-05-16T11:00:00.428Z,42.9
2023-05-16T11:05:00.518Z,47.3
2023-05-16T11:10:00.340Z,46.5
2023-05-16T11:15:00.481Z,44.4
2023-05-16T11:20:03.185Z,42.7
2023-05-16T11:25:00.342Z,41.8
2023-05-16T11:30:03.319Z,41.1
2023-05-16T11:35:00.406Z,41.0
2023-05-16T11:40:00.432Z,42.4
2023-05-16T11:45:00.439Z,44.0
2023-05-16T11:50:01.918Z,42.3
2023-05-16T11:55:00.345Z,41.8
2023-05-16T12:00:00.445Z,41.9
2023-05-16T12:05:00.471Z,42.0
2023-05-16T12:10:00.348Z,42.5
2023-05-16T12:15:00.411Z,45.9
2023-05-16T12:20:00.532Z,44.1
2023-05-16T12:25:00.326Z,42.6
2023-05-16T12:30:00.470Z,42.4
2023-05-16T12:35:00.453Z,41.3
2023-05-16T12:40:00.350Z,42.4
2023-05-16T12:45:00.452Z,43.4
2023-05-16T12:50:00.900Z,45.0
2023-05-16T12:55:00.347Z,46.1
2023-05-16T13:00:00.440Z,49.6
2023-05-16T13:05:00.599Z,49.4
2023-05-16T13:10:00.347Z,50.3
2023-05-16T13:15:00.673Z,48.9
2023-05-16T13:20:00.469Z,47.5
2023-05-16T13:25:00.337Z,46.5
2023-05-16T13:30:02.143Z,53.4
2023-05-16T13:35:00.419Z,48.4
2023-05-16T13:40:00.377Z,48.3
2023-05-16T13:45:00.413Z,47.9
2023-05-16T13:50:00.438Z,45.1
2023-05-16T13:55:00.339Z,44.3
2023-05-16T14:05:00.417Z,47.3
2023-05-16T14:10:00.362Z,48.0
2023-05-16T14:15:00.486Z,49.4
2023-05-16T14:20:00.464Z,48.6
2023-05-16T14:25:00.341Z,47.9
2023-05-16T14:30:00.505Z,48.2
2023-05-16T14:35:00.698Z,49.3
2023-05-16T14:40:00.356Z,49.3
2023-05-16T14:45:00.616Z,47.8
2023-05-16T14:50:00.530Z,46.5
2023-05-16T14:55:00.343Z,46.0
2023-05-16T15:00:02.392Z,44.3
2023-05-16T15:05:00.579Z,45.8
2023-05-16T15:10:00.348Z,45.6
2023-05-16T15:15:00.415Z,47.5
2023-05-16T15:20:00.490Z,48.6
2023-05-16T15:25:00.352Z,49.3
2023-05-16T15:30:00.445Z,48.5
2023-05-16T15:35:00.410Z,48.9
2023-05-16T15:40:00.356Z,52.2
2023-05-16T15:45:00.942Z,53.9
2023-05-16T15:50:00.612Z,57.9
2023-05-16T15:55:00.342Z,56.5
2023-05-16T16:00:00.496Z,54.7
2023-05-16T16:05:00.658Z,52.5
2023-05-16T16:10:00.418Z,55.6
2023-05-16T16:15:00.454Z,51.2
2023-05-16T16:20:00.519Z,48.5
2023-05-16T16:25:00.337Z,50.2
2023-05-16T16:30:00.561Z,52.1
2023-05-16T16:35:00.536Z,53.2
2023-05-16T16:40:00.351Z,52.9
2023-05-16T16:45:00.462Z,54.4
2023-05-16T16:50:00.556Z,54.9
2023-05-16T16:55:00.341Z,56.1
2023-05-16T17:00:00.451Z,57.3
2023-05-16T17:05:00.452Z,59.2
2023-05-16T17:10:00.354Z,62.6
2023-05-16T17:15:00.636Z,64.3
2023-05-16T17:20:00.436Z,66.6
2023-05-16T17:25:00.349Z,67.3
2023-05-16T17:30:01.577Z,70.4
2023-05-16T17:35:00.673Z,67.9
2023-05-16T17:40:00.359Z,66.4
2023-05-16T17:45:00.631Z,67.9
2023-05-16T17:50:00.507Z,67.7
2023-05-16T17:55:00.406Z,67.2
2023-05-16T18:00:00.368Z,67.6
2023-05-16T18:05:00.583Z,65.4
2023-05-16T18:10:01.018Z,65.5
2023-05-16T18:15:00.348Z,66.6
2023-05-16T18:20:00.780Z,66.9
2023-05-16T18:25:01.010Z,72.4
2023-05-16T18:30:00.404Z,73.3
2023-05-16T18:35:00.476Z,73.0
2023-05-16T18:40:00.407Z,73.6
2023-05-16T18:45:00.335Z,74.6
2023-05-16T18:50:04.070Z,74.9
2023-05-16T18:55:00.598Z,75.8
2023-05-16T19:00:00.398Z,76.1
2023-05-16T19:05:01.588Z,76.3
2023-05-16T19:10:02.801Z,76.6
2023-05-16T19:15:00.326Z,77.4
2023-05-16T19:20:00.796Z,77.0
2023-05-16T19:25:01.012Z,77.7
2023-05-16T19:30:00.344Z,77.3
2023-05-16T19:35:01.158Z,78.1
2023-05-16T19:40:00.540Z,79.0
2023-05-16T19:45:00.348Z,78.9
2023-05-16T19:50:00.458Z,78.7
2023-05-16T19:55:00.744Z,78.2
2023-05-16T20:00:00.328Z,77.0
2023-05-16T20:05:00.688Z,78.6
2023-05-16T20:10:00.435Z,74.2
2023-05-16T20:15:00.343Z,76.6
2023-05-16T20:20:00.569Z,78.1
2023-05-16T20:25:00.433Z,79.7
2023-05-16T20:30:00.343Z,79.8
2023-05-16T20:35:01.051Z,79.5
2023-05-16T20:40:00.394Z,80.2
2023-05-16T20:45:00.328Z,79.7
2023-05-16T20:50:00.426Z,80.4
2023-05-16T20:55:00.326Z,80.3
2023-05-16T21:00:00.341Z,80.7
2023-05-16T21:05:14.503Z,80.4
2023-05-16T21:10:00.333Z,80.4
2023-05-16T21:15:00.436Z,80.2
2023-05-16T21:20:00.455Z,79.9
2023-05-16T21:25:00.326Z,80.1
2023-05-16T21:30:00.338Z,79.5
2023-05-16T21:35:00.480Z,79.8
2023-05-16T21:40:00.341Z,80.6
2023-05-16T21:45:00.349Z,80.3
2023-05-16T21:50:00.422Z,80.6
2023-05-16T21:55:00.323Z,80.4
2023-05-16T22:00:00.323Z,80.5
2023-05-16T22:05:00.623Z,80.5
2023-05-16T22:10:00.349Z,80.2
2023-05-16T22:15:00.345Z,80.1
2023-05-16T22:20:00.508Z,80.4
2023-05-16T22:25:00.337Z,80.3
2023-05-16T22:30:00.357Z,80.1
2023-05-16T22:35:01.592Z,79.8
2023-05-16T22:40:00.343Z,79.6
2023-05-16T22:45:00.334Z,79.8
2023-05-16T22:50:02.393Z,80.2
2023-05-16T22:55:00.345Z,80.1
2023-05-16T23:00:00.351Z,79.7
2023-05-16T23:05:00.450Z,78.8
2023-05-16T23:10:00.329Z,78.5
2023-05-16T23:15:00.331Z,78.0
2023-05-16T23:20:00.541Z,77.3
2023-05-16T23:25:00.342Z,77.3
2023-05-16T23:30:00.386Z,77.5
2023-05-16T23:35:00.368Z,76.7
2023-05-16T23:40:00.334Z,77.3
2023-05-16T23:45:00.417Z,76.7
2023-05-16T23:50:00.540Z,76.5
2023-05-16T23:55:00.332Z,75.5
